Time,TemperatureF,DewpointF,PressureIn,WindDirection,WindDirectionDegrees,WindSpeedMPH,WindSpeedGustMPH,Humidity,HourlyPrecipIn,Conditions,Clouds,dailyrainin,SoftwareType,DateUTC
2013-03-05 00:00:00,64.6,15.9,25.39,WNW,292,12.8,13.0,15,0.00,,---,0.00,VWS V14.01,2013-03-05 06:00:00,
2013-03-05 00:05:00,64.6,15.9,25.39,WNW,292,11.2,13.0,15,0.00,,---,0.00,VWS V14.01,2013-03-05 06:05:00,
2013-03-05 00:10:00,64.6,15.9,25.39,WNW,292,11.0,13.2,15,0.00,,---,0.00,VWS V14.01,2013-03-05 06:10:00,
2013-03-05 00:15:00,64.4,15.8,25.42,WNW,292,10.7,17.5,15,0.00,,---,0.00,VWS V14.01,2013-03-05 06:15:00,
2013-03-05 00:20:00,64.0,17.0,25.42,West,270,8.7,12.1,16,0.00,,---,0.00,VWS V14.01,2013-03-05 06:20:00,
2013-03-05 00:25:00,63.9,16.8,25.42,WNW,292,11.0,11.0,16,0.00,,---,0.00,VWS V14.01,2013-03-05 06:25:00,
2013-03-05 00:30:00,63.5,16.5,25.42,WNW,292,10.5,11.0,16,0.00,,---,0.00,VWS V14.01,2013-03-05 06:30:00,
2013-03-05 00:35:00,63.5,16.5,25.42,NW,315,10.7,14.8,16,0.00,,---,0.00,VWS V14.01,2013-03-05 06:35:00,
2013-03-05 00:40:00,63.3,16.4,25.42,WNW,292,12.3,14.8,16,0.00,,---,0.00,VWS V14.01,2013-03-05 06:40:00,
2013-03-05 00:45:00,63.7,16.7,25.42,NW,315,12.5,17.5,16,0.00,,---,0.00,VWS V14.01,2013-03-05 06:45:00,
2013-03-05 00:50:00,63.5,16.5,25.42,WNW,292,13.2,15.4,16,0.00,,---,0.00,VWS V14.01,2013-03-05 06:50:00,
2013-03-05 00:55:00,63.1,16.2,25.42,NW,315,17.0,17.0,16,0.00,,---,0.00,VWS V14.01,2013-03-05 06:55:00,
2013-03-05 01:00:00,63.0,16.1,25.42,NW,315,12.8,17.0,16,0.00,,---,0.00,VWS V14.01,2013-03-05 07:00:00,
2013-03-05 01:05:00,62.6,15.8,25.42,WNW,292,10.1,12.3,16,0.00,,---,0.00,VWS V14.01,2013-03-05 07:05:00,
2013-03-05 01:10:00,62.8,15.9,25.42,WNW,292,11.0,11.0,16,0.00,,---,0.00,VWS V14.01,2013-03-05 07:10:00,
2013-03-05 01:15:00,62.8,15.9,25.45,NW,315,12.3,19.0,16,0.00,,---,0.00,VWS V14.01,2013-03-05 07:15:00,
2013-03-05 01:20:00,62.4,15.7,25.45,NW,315,8.7,10.5,16,0.00,,---,0.00,VWS V14.01,2013-03-05 07:20:00,
2013-03-05 01:25:00,62.1,15.4,25.45,WNW,292,10.1,12.3,16,0.00,,---,0.00,VWS V14.01,2013-03-05 07:25:00,
2013-03-05 01:30:00,62.2,15.5,25.48,WNW,292,11.0,12.5,16,0.00,,---,0.00,VWS V14.01,2013-03-05 07:30:00,
2013-03-05 01:35:00,62.4,15.7,25.48,NW,315,10.1,10.1,16,0.00,,---,0.00,VWS V14.01,2013-03-05 07:35:00,
2013-03-05 01:40:00,61.9,15.2,25.48,NW,315,7.4,7.4,16,0.00,,---,0.00,VWS V14.01,2013-03-05 07:40:00,
2013-03-05 01:45:00,59.2,14.4,25.48,WSW,248,1.1,2.5,17,0.00,,---,0.00,VWS V14.01,2013-03-05 07:45:00,
2013-03-05 01:50:00,58.5,13.8,25.48,NNE,22,3.8,3.8,17,0.00,,---,0.00,VWS V14.01,2013-03-05 07:50:00,
2013-03-05 01:55:00,58.3,13.7,25.48,NNW,338,4.9,4.9,17,0.00,,---,0.00,VWS V14.01,2013-03-05 07:55:00,
2013-03-05 02:00:00,57.9,13.4,25.48,NE,45,3.6,3.8,17,0.00,,---,0.00,VWS V14.01,2013-03-05 08:00:00,
2013-03-05 02:05:00,58.5,13.8,25.48,NNW,338,5.6,5.6,17,0.00,,---,0.00,VWS V14.01,2013-03-05 08:05:00,
2013-03-05 02:10:00,59.4,14.6,25.48,NW,315,10.7,13.0,17,0.00,,---,0.00,VWS V14.01,2013-03-05 08:10:00,
2013-03-05 02:15:00,59.9,15.0,25.48,NW,315,12.5,12.5,17,0.00,,---,0.00,VWS V14.01,2013-03-05 08:15:00,
2013-03-05 02:20:00,61.0,14.5,25.48,NNW,338,11.0,11.0,16,0.00,,---,0.00,VWS V14.01,2013-03-05 08:20:00,
2013-03-05 02:25:00,60.6,15.6,25.48,WNW,292,8.7,10.3,17,0.00,,---,0.00,VWS V14.01,2013-03-05 08:25:00,
2013-03-05 02:30:00,60.6,15.6,25.48,NNW,338,10.5,10.5,17,0.00,,---,0.00,VWS V14.01,2013-03-05 08:30:00,
2013-03-05 02:35:00,61.0,14.5,25.48,NNW,338,10.3,10.3,16,0.00,,---,0.00,VWS V14.01,2013-03-05 08:35:00,
2013-03-05 02:40:00,60.8,14.4,25.48,NW,315,9.8,9.8,16,0.00,,---,0.00,VWS V14.01,2013-03-05 08:40:00,
2013-03-05 02:45:00,58.8,14.1,25.48,NNE,22,7.4,7.6,17,0.00,,---,0.00,VWS V14.01,2013-03-05 08:45:00,
2013-03-05 02:50:00,57.0,12.7,25.48,NNE,22,6.5,6.5,17,0.00,,---,0.00,VWS V14.01,2013-03-05 08:50:00,
2013-03-05 02:55:00,55.9,11.8,25.48,North,0,7.8,7.8,17,0.00,,---,0.00,VWS V14.01,2013-03-05 08:55:00,
2013-03-05 03:00:00,55.0,12.3,25.48,NNE,22,6.7,6.7,18,0.00,,---,0.00,VWS V14.01,2013-03-05 09:00:00,
2013-03-05 03:05:00,54.5,11.9,25.48,NNE,22,7.2,7.8,18,0.00,,---,0.00,VWS V14.01,2013-03-05 09:05:00,
2013-03-05 03:10:00,54.3,11.7,25.48,North,0,5.4,5.4,18,0.00,,---,0.00,VWS V14.01,2013-03-05 09:10:00,
2013-03-05 03:15:00,54.1,11.6,25.51,NNE,22,5.4,5.4,18,0.00,,---,0.00,VWS V14.01,2013-03-05 09:15:00,
2013-03-05 03:20:00,54.1,11.6,25.51,North,0,8.5,10.3,18,0.00,,---,0.00,VWS V14.01,2013-03-05 09:20:00,
2013-03-05 03:25:00,55.2,12.5,25.51,NE,45,19.5,19.5,18,0.00,,---,0.00,VWS V14.01,2013-03-05 09:25:00,
2013-03-05 03:30:00,54.7,12.0,25.54,NNE,22,22.8,22.8,18,0.00,,---,0.00,VWS V14.01,2013-03-05 09:30:00,
2013-03-05 03:35:00,54.1,11.6,25.54,North,0,25.7,27.7,18,0.00,,---,0.00,VWS V14.01,2013-03-05 09:35:00,
2013-03-05 03:40:00,53.1,10.7,25.54,NNW,338,29.1,29.1,18,0.00,,---,0.00,VWS V14.01,2013-03-05 09:40:00,
2013-03-05 03:45:00,52.5,10.2,25.54,NNE,22,25.3,30.0,18,0.00,,---,0.00,VWS V14.01,2013-03-05 09:45:00,
2013-03-05 03:50:00,50.7,22.7,25.54,NNE,22,23.5,23.5,33,0.00,,---,0.00,VWS V14.01,2013-03-05 09:50:00,
2013-03-05 03:55:00,49.5,26.2,25.54,NNE,22,29.1,31.3,40,0.00,,---,0.00,VWS V14.01,2013-03-05 09:55:00,
2013-03-05 04:00:00,48.7,26.7,25.57,NNE,22,17.7,19.7,42,0.00,,---,0.00,VWS V14.01,2013-03-05 10:00:00,
2013-03-05 04:05:00,47.5,26.1,25.57,NNW,338,23.9,26.6,43,0.00,,---,0.00,VWS V14.01,2013-03-05 10:05:00,
2013-03-05 04:10:00,46.2,26.1,25.57,North,0,23.9,23.9,45,0.00,,---,0.00,VWS V14.01,2013-03-05 10:10:00,
2013-03-05 04:15:00,45.3,25.8,25.60,North,0,26.2,26.2,46,0.00,,---,0.00,VWS V14.01,2013-03-05 10:15:00,
2013-03-05 04:20:00,44.6,25.6,25.60,North,0,15.7,23.0,47,0.00,,---,0.00,VWS V14.01,2013-03-05 10:20:00,
2013-03-05 04:25:00,44.1,25.6,25.60,NNE,22,17.7,22.8,48,0.00,,---,0.00,VWS V14.01,2013-03-05 10:25:00,
2013-03-05 04:30:00,43.7,25.8,25.60,North,0,15.4,17.7,49,0.00,,---,0.00,VWS V14.01,2013-03-05 10:30:00,
2013-03-05 04:35:00,43.5,25.6,25.60,North,0,20.4,23.5,49,0.00,,---,0.00,VWS V14.01,2013-03-05 10:35:00,
2013-03-05 04:40:00,43.3,26.0,25.60,NNW,338,19.9,19.9,50,0.00,,---,0.00,VWS V14.01,2013-03-05 10:40:00,
2013-03-05 04:45:00,43.0,25.6,25.63,North,0,22.2,22.4,50,0.00,,---,0.00,VWS V14.01,2013-03-05 10:45:00,
2013-03-05 04:50:00,42.8,25.5,25.63,NNE,22,12.8,17.7,50,0.00,,---,0.00,VWS V14.01,2013-03-05 10:50:00,
2013-03-05 04:55:00,42.6,25.8,25.63,North,0,24.2,24.2,51,0.00,,---,0.00,VWS V14.01,2013-03-05 10:55:00,
2013-03-05 05:00:00,42.3,25.9,25.66,North,0,29.5,29.5,52,0.00,,---,0.00,VWS V14.01,2013-03-05 11:00:00,
2013-03-05 05:05:00,41.9,26.0,25.66,North,0,23.5,24.4,53,0.00,,---,0.00,VWS V14.01,2013-03-05 11:05:00,
2013-03-05 05:10:00,41.5,26.1,25.66,NNE,22,27.3,27.3,54,0.00,,---,0.00,VWS V14.01,2013-03-05 11:10:00,
2013-03-05 05:15:00,41.5,26.6,25.66,NNE,22,20.1,20.1,55,0.00,,---,0.00,VWS V14.01,2013-03-05 11:15:00,
2013-03-05 05:20:00,41.2,26.7,25.66,NNE,22,25.1,25.1,56,0.00,,---,0.00,VWS V14.01,2013-03-05 11:20:00,
2013-03-05 05:25:00,41.0,27.0,25.66,NNE,22,23.5,24.6,57,0.00,,---,0.00,VWS V14.01,2013-03-05 11:25:00,
2013-03-05 05:30:00,41.0,27.0,25.66,NNE,22,27.3,27.3,57,0.00,,---,0.00,VWS V14.01,2013-03-05 11:30:00,
2013-03-05 05:35:00,40.6,27.0,25.66,North,0,24.2,26.6,58,0.00,,---,0.00,VWS V14.01,2013-03-05 11:35:00,
2013-03-05 05:40:00,40.6,27.0,25.66,NNE,22,25.5,30.2,58,0.00,,---,0.00,VWS V14.01,2013-03-05 11:40:00,
2013-03-05 05:45:00,40.3,26.3,25.66,North,0,23.0,24.6,57,0.00,,---,0.00,VWS V14.01,2013-03-05 11:45:00,
2013-03-05 05:50:00,39.9,25.5,25.66,North,0,18.6,24.2,56,0.00,,---,0.00,VWS V14.01,2013-03-05 11:50:00,
2013-03-05 05:56:00,39.7,24.9,25.69,North,0,22.4,30.2,55,0.00,,---,0.00,VWS V14.01,2013-03-05 11:56:00,
2013-03-05 06:01:00,39.2,24.0,25.69,NNE,22,23.7,26.4,54,0.00,,---,0.00,VWS V14.01,2013-03-05 12:01:00,
2013-03-05 06:06:00,38.8,23.2,25.69,North,0,19.2,24.4,53,0.00,,---,0.00,VWS V14.01,2013-03-05 12:06:00,
2013-03-05 06:11:00,38.7,23.0,25.69,North,0,18.1,22.6,53,0.00,,---,0.00,VWS V14.01,2013-03-05 12:11:00,
2013-03-05 06:16:00,38.3,22.7,25.69,NNE,22,23.9,23.9,53,0.00,,---,0.00,VWS V14.01,2013-03-05 12:16:00,
2013-03-05 06:21:00,38.1,22.5,25.69,NNE,22,23.5,23.5,53,0.00,,---,0.00,VWS V14.01,2013-03-05 12:21:00,
2013-03-05 06:26:00,37.9,21.9,25.69,NNE,22,17.7,23.9,52,0.00,,---,0.00,VWS V14.01,2013-03-05 12:26:00,
2013-03-05 06:30:00,37.9,21.9,25.69,NNE,22,18.8,23.5,52,0.00,,---,0.00,VWS V14.01,2013-03-05 12:30:00,
2013-03-05 06:36:00,37.4,21.4,25.69,North,0,21.0,22.6,52,0.00,,---,0.00,VWS V14.01,2013-03-05 12:36:00,
2013-03-05 06:41:00,37.4,21.4,25.69,NNE,22,21.9,21.9,52,0.00,,---,0.00,VWS V14.01,2013-03-05 12:41:00,
2013-03-05 06:46:00,37.4,20.9,25.69,NNE,22,16.6,16.6,51,0.00,,---,0.00,VWS V14.01,2013-03-05 12:46:00,
2013-03-05 06:51:00,37.0,20.6,25.69,NNE,22,19.5,22.2,51,0.00,,---,0.00,VWS V14.01,2013-03-05 12:51:00,
2013-03-05 06:56:00,37.0,20.6,25.72,North,0,15.2,18.8,51,0.00,,---,0.00,VWS V14.01,2013-03-05 12:56:00,
2013-03-05 07:01:00,37.0,20.6,25.72,NNE,22,12.3,17.2,51,0.00,,---,0.00,VWS V14.01,2013-03-05 13:01:00,
2013-03-05 07:06:00,36.9,20.9,25.72,NNE,22,16.6,18.8,52,0.00,,---,0.00,VWS V14.01,2013-03-05 13:06:00,
2013-03-05 07:11:00,36.5,20.1,25.72,NNE,22,19.7,19.7,51,0.00,,---,0.00,VWS V14.01,2013-03-05 13:11:00,
2013-03-05 07:16:00,36.0,20.1,25.72,NNE,22,22.6,23.5,52,0.00,,---,0.00,VWS V14.01,2013-03-05 13:16:00,
2013-03-05 07:21:00,35.8,20.3,25.72,NNE,22,12.1,15.4,53,0.00,,---,0.00,VWS V14.01,2013-03-05 13:21:00,
2013-03-05 07:26:00,35.6,20.6,25.75,NNE,22,15.4,15.7,54,0.00,,---,0.00,VWS V14.01,2013-03-05 13:26:00,
2013-03-05 07:31:00,35.6,20.6,25.75,NNE,22,17.7,17.7,54,0.00,,---,0.00,VWS V14.01,2013-03-05 13:31:00,
2013-03-05 07:36:00,35.6,21.0,25.75,NNE,22,15.9,19.5,55,0.00,,---,0.00,VWS V14.01,2013-03-05 13:36:00,
2013-03-05 07:41:00,35.4,20.9,25.72,NNE,22,22.2,22.4,55,0.00,,---,0.00,VWS V14.01,2013-03-05 13:41:00,
2013-03-05 07:46:00,35.4,20.9,25.72,North,0,19.9,19.9,55,0.00,,---,0.00,VWS V14.01,2013-03-05 13:46:00,
2013-03-05 07:51:00,35.4,20.9,25.72,NNE,22,18.6,19.0,55,0.00,,---,0.00,VWS V14.01,2013-03-05 13:51:00,
2013-03-05 07:56:00,35.6,20.6,25.72,North,0,17.7,20.1,54,0.00,,---,0.00,VWS V14.01,2013-03-05 13:56:00,
2013-03-05 08:01:00,36.0,20.5,25.72,North,0,19.5,19.5,53,0.00,,---,0.00,VWS V14.01,2013-03-05 14:01:00,
2013-03-05 08:06:00,36.1,19.8,25.72,North,0,14.8,15.7,51,0.00,,---,0.00,VWS V14.01,2013-03-05 14:06:00,
2013-03-05 08:11:00,36.1,20.2,25.72,NNE,22,13.6,19.9,52,0.00,,---,0.00,VWS V14.01,2013-03-05 14:11:00,
2013-03-05 08:16:00,36.3,20.4,25.72,North,0,13.2,16.1,52,0.00,,---,0.00,VWS V14.01,2013-03-05 14:16:00,
2013-03-05 08:21:00,36.3,20.4,25.72,NNE,22,20.1,20.1,52,0.00,,---,0.00,VWS V14.01,2013-03-05 14:21:00,
2013-03-05 08:26:00,36.3,20.4,25.72,NNE,22,17.7,17.7,52,0.00,,---,0.00,VWS V14.01,2013-03-05 14:26:00,
2013-03-05 08:31:00,36.9,20.9,25.72,North,0,17.9,17.9,52,0.00,,---,0.00,VWS V14.01,2013-03-05 14:31:00,
2013-03-05 08:36:00,37.0,20.6,25.72,NNE,22,17.5,17.5,51,0.00,,---,0.00,VWS V14.01,2013-03-05 14:36:00,
2013-03-05 08:41:00,37.2,20.8,25.72,North,0,12.5,18.6,51,0.00,,---,0.00,VWS V14.01,2013-03-05 14:41:00,
2013-03-05 08:46:00,37.2,20.8,25.72,NNE,22,17.7,19.7,51,0.00,,---,0.00,VWS V14.01,2013-03-05 14:46:00,
2013-03-05 08:51:00,37.0,20.6,25.72,NNE,22,13.0,19.7,51,0.00,,---,0.00,VWS V14.01,2013-03-05 14:51:00,
2013-03-05 08:56:00,37.6,20.6,25.75,NNE,22,16.3,19.5,50,0.00,,---,0.00,VWS V14.01,2013-03-05 14:56:00,
2013-03-05 09:01:00,38.1,20.7,25.75,North,0,12.8,19.2,49,0.00,,---,0.00,VWS V14.01,2013-03-05 15:01:00,
2013-03-05 09:06:00,37.9,20.5,25.75,NNE,22,15.2,17.5,49,0.00,,---,0.00,VWS V14.01,2013-03-05 15:06:00,
2013-03-05 09:11:00,37.9,20.5,25.75,NNE,22,17.0,19.9,49,0.00,,---,0.00,VWS V14.01,2013-03-05 15:11:00,
2013-03-05 09:16:00,38.1,20.2,25.75,North,0,15.2,17.7,48,0.00,,---,0.00,VWS V14.01,2013-03-05 15:16:00,
2013-03-05 09:21:00,38.3,19.9,25.75,North,0,15.4,15.4,47,0.00,,---,0.00,VWS V14.01,2013-03-05 15:21:00,
2013-03-05 09:26:00,38.3,19.9,25.75,NNE,22,16.3,17.5,47,0.00,,---,0.00,VWS V14.01,2013-03-05 15:26:00,
2013-03-05 09:31:00,38.7,19.7,25.75,NNE,22,12.3,17.0,46,0.00,,---,0.00,VWS V14.01,2013-03-05 15:31:00,
2013-03-05 09:36:00,39.4,19.8,25.75,NNE,22,10.5,13.2,45,0.00,,---,0.00,VWS V14.01,2013-03-05 15:36:00,
2013-03-05 09:41:00,39.6,19.5,25.75,NE,45,14.8,14.8,44,0.00,,---,0.00,VWS V14.01,2013-03-05 15:41:00,
2013-03-05 09:46:00,39.7,19.6,25.75,NNE,22,15.2,15.2,44,0.00,,---,0.00,VWS V14.01,2013-03-05 15:46:00,
2013-03-05 09:51:00,39.7,19.1,25.75,NE,45,17.2,17.2,43,0.00,,---,0.00,VWS V14.01,2013-03-05 15:51:00,
2013-03-05 09:56:00,40.5,19.7,25.75,NNE,22,13.0,13.2,43,0.00,,---,0.00,VWS V14.01,2013-03-05 15:56:00,
2013-03-05 10:01:00,41.0,19.7,25.75,NNE,22,12.5,13.2,42,0.00,,---,0.00,VWS V14.01,2013-03-05 16:01:00,
2013-03-05 10:06:00,42.1,20.1,25.75,NNE,22,11.2,12.8,41,0.00,,---,0.00,VWS V14.01,2013-03-05 16:06:00,
2013-03-05 10:11:00,42.3,19.7,25.75,NNE,22,12.5,13.6,40,0.00,,---,0.00,VWS V14.01,2013-03-05 16:11:00,
2013-03-05 10:16:00,41.9,19.4,25.75,NE,45,13.0,16.6,40,0.00,,---,0.00,VWS V14.01,2013-03-05 16:16:00,
2013-03-05 10:21:00,42.3,19.7,25.75,NE,45,9.8,10.7,40,0.00,,---,0.00,VWS V14.01,2013-03-05 16:21:00,
2013-03-05 10:26:00,43.3,20.1,25.75,NE,45,11.0,15.4,39,0.00,,---,0.00,VWS V14.01,2013-03-05 16:26:00,
2013-03-05 10:31:00,44.1,20.1,25.75,NNE,22,10.1,11.2,38,0.00,,---,0.00,VWS V14.01,2013-03-05 16:31:00,
2013-03-05 10:36:00,44.6,20.6,25.75,NE,45,8.1,12.3,38,0.00,,---,0.00,VWS V14.01,2013-03-05 16:36:00,
2013-03-05 10:41:00,45.1,20.4,25.72,NE,45,14.3,14.8,37,0.00,,---,0.00,VWS V14.01,2013-03-05 16:41:00,
2013-03-05 10:46:00,45.1,20.4,25.72,ENE,68,15.4,17.7,37,0.00,,---,0.00,VWS V14.01,2013-03-05 16:46:00,
2013-03-05 10:51:00,45.0,20.3,25.72,NNE,22,12.8,12.8,37,0.00,,---,0.00,VWS V14.01,2013-03-05 16:51:00,
2013-03-05 10:56:00,44.8,19.5,25.72,NNE,22,12.1,14.8,36,0.00,,---,0.00,VWS V14.01,2013-03-05 16:56:00,
2013-03-05 11:01:00,44.1,19.5,25.72,NNE,22,13.0,15.2,37,0.00,,---,0.00,VWS V14.01,2013-03-05 17:01:00,
2013-03-05 11:06:00,46.8,21.2,25.72,ENE,68,7.2,9.0,36,0.00,,---,0.00,VWS V14.01,2013-03-05 17:06:00,
2013-03-05 11:11:00,46.2,20.1,25.72,NNE,22,16.6,17.0,35,0.00,,---,0.00,VWS V14.01,2013-03-05 17:11:00,
2013-03-05 11:16:00,46.0,19.9,25.72,NE,45,7.6,10.3,35,0.00,,---,0.00,VWS V14.01,2013-03-05 17:16:00,
2013-03-05 11:21:00,45.5,18.8,25.72,ENE,68,11.9,16.3,34,0.00,,---,0.00,VWS V14.01,2013-03-05 17:21:00,
2013-03-05 11:26:00,46.9,19.4,25.72,NE,45,16.1,17.2,33,0.00,,---,0.00,VWS V14.01,2013-03-05 17:26:00,
2013-03-05 11:31:00,46.2,19.4,25.72,NNE,22,11.4,15.2,34,0.00,,---,0.00,VWS V14.01,2013-03-05 17:31:00,
2013-03-05 11:36:00,46.8,19.2,25.72,NNE,22,10.5,11.0,33,0.00,,---,0.00,VWS V14.01,2013-03-05 17:36:00,
2013-03-05 11:41:00,47.5,19.8,25.72,NE,45,12.8,13.0,33,0.00,,---,0.00,VWS V14.01,2013-03-05 17:41:00,
2013-03-05 11:46:00,47.3,19.0,25.72,ENE,68,15.4,15.4,32,0.00,,---,0.00,VWS V14.01,2013-03-05 17:46:00,
2013-03-05 11:51:00,48.0,19.6,25.72,NNE,22,11.0,11.0,32,0.00,,---,0.00,VWS V14.01,2013-03-05 17:51:00,
2013-03-05 11:56:00,48.7,19.5,25.72,NE,45,10.7,16.3,31,0.00,,---,0.00,VWS V14.01,2013-03-05 17:56:00,
2013-03-05 12:01:00,48.7,19.5,25.72,ENE,68,11.0,11.0,31,0.00,,---,0.00,VWS V14.01,2013-03-05 18:01:00,
2013-03-05 12:06:00,48.0,18.8,25.72,NE,45,10.3,15.4,31,0.00,,---,0.00,VWS V14.01,2013-03-05 18:06:00,
2013-03-05 12:11:00,50.7,20.4,25.72,North,0,6.0,8.1,30,0.00,,---,0.00,VWS V14.01,2013-03-05 18:11:00,
2013-03-05 12:16:00,50.0,19.8,25.72,ENE,68,11.2,13.0,30,0.00,,---,0.00,VWS V14.01,2013-03-05 18:16:00,
2013-03-05 12:21:00,50.7,20.4,25.72,NNE,22,16.3,16.3,30,0.00,,---,0.00,VWS V14.01,2013-03-05 18:21:00,
2013-03-05 12:26:00,51.6,20.4,25.69,NNE,22,9.6,9.6,29,0.00,,---,0.00,VWS V14.01,2013-03-05 18:26:00,
2013-03-05 12:31:00,51.1,20.0,25.69,ENE,68,10.5,12.1,29,0.00,,---,0.00,VWS V14.01,2013-03-05 18:31:00,
2013-03-05 12:36:00,51.4,20.3,25.69,NNE,22,17.2,17.2,29,0.00,,---,0.00,VWS V14.01,2013-03-05 18:36:00,
2013-03-05 12:41:00,51.8,19.8,25.72,NNE,22,11.0,13.2,28,0.00,,---,0.00,VWS V14.01,2013-03-05 18:41:00,
2013-03-05 12:46:00,52.2,20.1,25.72,NNE,22,7.6,13.2,28,0.00,,---,0.00,VWS V14.01,2013-03-05 18:46:00,
2013-03-05 12:51:00,52.7,20.5,25.72,North,0,15.4,18.1,28,0.00,,---,0.00,VWS V14.01,2013-03-05 18:51:00,
2013-03-05 12:56:00,52.0,19.9,25.72,NE,45,14.3,16.1,28,0.00,,---,0.00,VWS V14.01,2013-03-05 18:56:00,
2013-03-05 13:01:00,54.0,20.8,25.72,NNE,22,15.4,15.4,27,0.00,,---,0.00,VWS V14.01,2013-03-05 19:01:00,
2013-03-05 13:06:00,53.1,20.0,25.72,NE,45,16.8,20.1,27,0.00,,---,0.00,VWS V14.01,2013-03-05 19:06:00,
2013-03-05 13:11:00,53.4,20.3,25.72,NE,45,9.2,15.4,27,0.00,,---,0.00,VWS V14.01,2013-03-05 19:11:00,
2013-03-05 13:16:00,53.4,20.3,25.72,ENE,68,6.7,10.1,27,0.00,,---,0.00,VWS V14.01,2013-03-05 19:16:00,
2013-03-05 13:21:00,51.6,18.8,25.72,ENE,68,17.0,17.0,27,0.00,,---,0.00,VWS V14.01,2013-03-05 19:21:00,
2013-03-05 13:26:00,52.3,19.4,25.72,NNE,22,8.5,11.0,27,0.00,,---,0.00,VWS V14.01,2013-03-05 19:26:00,
2013-03-05 13:31:00,52.2,19.2,25.72,NE,45,10.5,14.8,27,0.00,,---,0.00,VWS V14.01,2013-03-05 19:31:00,
2013-03-05 13:36:00,52.3,19.4,25.72,NNE,22,15.2,15.7,27,0.00,,---,0.00,VWS V14.01,2013-03-05 19:36:00,
2013-03-05 13:41:00,51.8,18.9,25.69,NNE,22,8.7,15.4,27,0.00,,---,0.00,VWS V14.01,2013-03-05 19:41:00,
2013-03-05 13:46:00,52.2,19.2,25.69,NNE,22,15.4,15.4,27,0.00,,---,0.00,VWS V14.01,2013-03-05 19:46:00,
2013-03-05 13:51:00,53.2,20.1,25.69,ENE,68,8.5,15.7,27,0.00,,---,0.00,VWS V14.01,2013-03-05 19:51:00,
2013-03-05 13:56:00,53.4,20.3,25.69,NNE,22,15.4,15.4,27,0.00,,---,0.00,VWS V14.01,2013-03-05 19:56:00,
2013-03-05 14:01:00,54.1,20.0,25.69,NE,45,15.2,15.2,26,0.00,,---,0.00,VWS V14.01,2013-03-05 20:01:00,
2013-03-05 14:06:00,55.0,20.8,25.69,NNE,22,4.0,8.1,26,0.00,,---,0.00,VWS V14.01,2013-03-05 20:06:00,
2013-03-05 14:11:00,53.4,20.3,25.69,NE,45,14.8,14.8,27,0.00,,---,0.00,VWS V14.01,2013-03-05 20:11:00,
2013-03-05 14:16:00,53.8,19.7,25.69,NNW,338,6.0,14.8,26,0.00,,---,0.00,VWS V14.01,2013-03-05 20:16:00,
2013-03-05 14:21:00,55.2,21.0,25.69,ENE,68,8.1,8.1,26,0.00,,---,0.00,VWS V14.01,2013-03-05 20:21:00,
2013-03-05 14:26:00,56.3,21.9,25.69,NE,45,10.7,11.2,26,0.00,,---,0.00,VWS V14.01,2013-03-05 20:26:00,
2013-03-05 14:31:00,54.9,20.6,25.69,North,0,5.6,7.8,26,0.00,,---,0.00,VWS V14.01,2013-03-05 20:31:00,
2013-03-05 14:36:00,55.6,21.3,25.69,NNW,338,8.1,10.3,26,0.00,,---,0.00,VWS V14.01,2013-03-05 20:36:00,
2013-03-05 14:41:00,57.0,22.5,25.66,NNE,22,10.5,10.5,26,0.00,,---,0.00,VWS V14.01,2013-03-05 20:41:00,
2013-03-05 14:46:00,56.8,21.4,25.66,ENE,68,5.8,5.8,25,0.00,,---,0.00,VWS V14.01,2013-03-05 20:46:00,
2013-03-05 14:51:00,55.9,20.6,25.66,North,0,10.3,10.3,25,0.00,,---,0.00,VWS V14.01,2013-03-05 20:51:00,
2013-03-05 14:56:00,56.3,21.0,25.66,NE,45,10.1,10.1,25,0.00,,---,0.00,VWS V14.01,2013-03-05 20:56:00,
2013-03-05 15:01:00,57.0,21.6,25.66,NNE,22,3.8,11.0,25,0.00,,---,0.00,VWS V14.01,2013-03-05 21:01:00,
2013-03-05 15:06:00,58.1,22.5,25.66,NNE,22,4.0,8.1,25,0.00,,---,0.00,VWS V14.01,2013-03-05 21:06:00,
2013-03-05 15:11:00,58.5,22.8,25.66,NNE,22,10.5,10.5,25,0.00,,---,0.00,VWS V14.01,2013-03-05 21:11:00,
2013-03-05 15:16:00,58.8,23.1,25.66,NNW,338,4.0,4.0,25,0.00,,---,0.00,VWS V14.01,2013-03-05 21:16:00,
2013-03-05 15:21:00,58.1,22.5,25.66,ENE,68,7.8,8.7,25,0.00,,---,0.00,VWS V14.01,2013-03-05 21:21:00,
2013-03-05 15:26:00,59.0,22.3,25.66,NNE,22,10.5,10.5,24,0.00,,---,0.00,VWS V14.01,2013-03-05 21:26:00,
2013-03-05 15:31:00,58.5,22.8,25.66,NE,45,10.1,10.1,25,0.00,,---,0.00,VWS V14.01,2013-03-05 21:31:00,
2013-03-05 15:36:00,58.8,23.1,25.66,NNE,22,5.4,5.4,25,0.00,,---,0.00,VWS V14.01,2013-03-05 21:36:00,
2013-03-05 15:41:00,59.2,22.4,25.66,NNW,338,4.9,4.9,24,0.00,,---,0.00,VWS V14.01,2013-03-05 21:41:00,
2013-03-05 15:46:00,58.8,23.1,25.66,NNE,22,10.1,13.0,25,0.00,,---,0.00,VWS V14.01,2013-03-05 21:46:00,
2013-03-05 15:51:00,59.2,22.4,25.66,ENE,68,7.8,7.8,24,0.00,,---,0.00,VWS V14.01,2013-03-05 21:51:00,
2013-03-05 15:56:00,59.0,22.3,25.63,NNE,22,10.1,10.1,24,0.00,,---,0.00,VWS V14.01,2013-03-05 21:56:00,
2013-03-05 16:01:00,59.5,22.7,25.63,ENE,68,13.2,13.2,24,0.00,,---,0.00,VWS V14.01,2013-03-05 22:01:00,
2013-03-05 16:06:00,58.8,22.1,25.63,NNE,22,2.9,6.3,24,0.00,,---,0.00,VWS V14.01,2013-03-05 22:06:00,
2013-03-05 16:11:00,58.8,22.1,25.63,NE,45,8.5,8.5,24,0.00,,---,0.00,VWS V14.01,2013-03-05 22:11:00,
2013-03-05 16:16:00,58.6,22.0,25.63,NE,45,10.3,10.5,24,0.00,,---,0.00,VWS V14.01,2013-03-05 22:16:00,
2013-03-05 16:21:00,58.6,22.0,25.63,ENE,68,13.2,13.2,24,0.00,,---,0.00,VWS V14.01,2013-03-05 22:21:00,
2013-03-05 16:26:00,57.9,21.4,25.63,NNE,22,11.9,11.9,24,0.00,,---,0.00,VWS V14.01,2013-03-05 22:26:00,
2013-03-05 16:31:00,58.3,21.7,25.60,NNE,22,13.2,13.2,24,0.00,,---,0.00,VWS V14.01,2013-03-05 22:31:00,
2013-03-05 16:36:00,57.9,21.4,25.60,NE,45,11.2,13.2,24,0.00,,---,0.00,VWS V14.01,2013-03-05 22:36:00,
2013-03-05 16:41:00,57.9,21.4,25.60,NNE,22,11.2,11.2,24,0.00,,---,0.00,VWS V14.01,2013-03-05 22:41:00,
2013-03-05 16:46:00,58.3,21.7,25.60,NNE,22,8.7,10.7,24,0.00,,---,0.00,VWS V14.01,2013-03-05 22:46:00,
2013-03-05 16:51:00,57.9,21.4,25.60,NNE,22,13.6,13.6,24,0.00,,---,0.00,VWS V14.01,2013-03-05 22:51:00,
2013-03-05 16:56:00,57.2,20.8,25.60,NNE,22,9.8,11.9,24,0.00,,---,0.00,VWS V14.01,2013-03-05 22:56:00,
2013-03-05 17:01:00,56.8,21.4,25.60,NNE,22,12.3,12.3,25,0.00,,---,0.00,VWS V14.01,2013-03-05 23:01:00,
2013-03-05 17:06:00,56.5,21.1,25.60,NE,45,11.4,11.4,25,0.00,,---,0.00,VWS V14.01,2013-03-05 23:06:00,
2013-03-05 17:11:00,57.2,20.8,25.60,NNE,22,10.5,11.9,24,0.00,,---,0.00,VWS V14.01,2013-03-05 23:11:00,
2013-03-05 17:16:00,55.4,20.2,25.60,NE,45,11.0,11.0,25,0.00,,---,0.00,VWS V14.01,2013-03-05 23:16:00,
2013-03-05 17:21:00,54.3,19.3,25.60,ENE,68,12.8,12.8,25,0.00,,---,0.00,VWS V14.01,2013-03-05 23:21:00,
2013-03-05 17:26:00,56.1,20.8,25.60,NE,45,12.5,12.5,25,0.00,,---,0.00,VWS V14.01,2013-03-05 23:26:00,
2013-03-05 17:31:00,55.9,20.6,25.60,NNE,22,13.6,13.6,25,0.00,,---,0.00,VWS V14.01,2013-03-05 23:31:00,
2013-03-05 17:36:00,56.7,21.3,25.60,NE,45,13.9,13.9,25,0.00,,---,0.00,VWS V14.01,2013-03-05 23:36:00,
2013-03-05 17:42:00,56.3,21.0,25.60,ENE,68,6.5,12.3,25,0.00,,---,0.00,VWS V14.01,2013-03-05 23:42:00,
2013-03-05 17:47:00,54.9,19.7,25.60,NNE,22,8.7,9.6,25,0.00,,---,0.00,VWS V14.01,2013-03-05 23:47:00,
2013-03-05 17:52:00,53.8,18.8,25.60,ENE,68,8.5,8.5,25,0.00,,---,0.00,VWS V14.01,2013-03-05 23:52:00,
2013-03-05 17:57:00,54.7,20.5,25.63,ENE,68,8.5,8.5,26,0.00,,---,0.00,VWS V14.01,2013-03-05 23:57:00,
2013-03-05 18:02:00,55.2,20.0,25.63,NE,45,9.8,10.1,25,0.00,,---,0.00,VWS V14.01,2013-03-06 00:02:00,
2013-03-05 18:07:00,55.2,20.0,25.63,NE,45,10.7,10.7,25,0.00,,---,0.00,VWS V14.01,2013-03-06 00:07:00,
2013-03-05 18:12:00,55.0,19.9,25.63,ENE,68,7.8,8.7,25,0.00,,---,0.00,VWS V14.01,2013-03-06 00:12:00,
2013-03-05 18:17:00,54.9,19.7,25.63,NE,45,8.7,10.7,25,0.00,,---,0.00,VWS V14.01,2013-03-06 00:17:00,
2013-03-05 18:22:00,54.5,19.4,25.63,NE,45,12.5,13.0,25,0.00,,---,0.00,VWS V14.01,2013-03-06 00:22:00,
2013-03-05 18:27:00,53.8,18.8,25.60,NNE,22,8.1,10.3,25,0.00,,---,0.00,VWS V14.01,2013-03-06 00:27:00,
2013-03-05 18:32:00,53.1,19.1,25.60,NE,45,13.4,13.4,26,0.00,,---,0.00,VWS V14.01,2013-03-06 00:32:00,
2013-03-05 18:37:00,52.2,18.3,25.60,NNE,22,8.7,10.1,26,0.00,,---,0.00,VWS V14.01,2013-03-06 00:37:00,
2013-03-05 18:42:00,51.4,17.7,25.63,NE,45,8.7,10.1,26,0.00,,---,0.00,VWS V14.01,2013-03-06 00:42:00,
2013-03-05 18:47:00,50.9,17.2,25.63,NE,45,7.4,7.6,26,0.00,,---,0.00,VWS V14.01,2013-03-06 00:47:00,
2013-03-05 18:52:00,50.0,16.5,25.63,NE,45,4.3,6.3,26,0.00,,---,0.00,VWS V14.01,2013-03-06 00:52:00,
2013-03-05 18:57:00,49.5,16.9,25.63,NE,45,6.5,6.5,27,0.00,,---,0.00,VWS V14.01,2013-03-06 00:57:00,
2013-03-05 19:02:00,48.6,16.1,25.63,NE,45,6.5,7.6,27,0.00,,---,0.00,VWS V14.01,2013-03-06 01:02:00,
2013-03-05 19:07:00,48.0,15.6,25.63,NE,45,4.9,6.0,27,0.00,,---,0.00,VWS V14.01,2013-03-06 01:07:00,
2013-03-05 19:12:00,47.5,15.2,25.63,NE,45,6.0,6.5,27,0.00,,---,0.00,VWS V14.01,2013-03-06 01:12:00,
2013-03-05 19:17:00,46.9,14.7,25.63,NNE,22,5.8,6.0,27,0.00,,---,0.00,VWS V14.01,2013-03-06 01:17:00,
2013-03-05 19:22:00,46.8,14.6,25.63,NNE,22,5.4,5.4,27,0.00,,---,0.00,VWS V14.01,2013-03-06 01:22:00,
2013-03-05 19:27:00,46.0,14.8,25.66,NE,45,4.7,4.9,28,0.00,,---,0.00,VWS V14.01,2013-03-06 01:27:00,
2013-03-05 19:32:00,45.5,14.3,25.66,NE,45,3.6,3.6,28,0.00,,---,0.00,VWS V14.01,2013-03-06 01:32:00,
2013-03-05 19:37:00,45.1,14.0,25.66,ENE,68,4.0,4.0,28,0.00,,---,0.00,VWS V14.01,2013-03-06 01:37:00,
2013-03-05 19:42:00,44.6,13.5,25.66,NE,45,3.8,4.0,28,0.00,,---,0.00,VWS V14.01,2013-03-06 01:42:00,
2013-03-05 19:47:00,44.2,14.0,25.66,ENE,68,2.9,3.4,29,0.00,,---,0.00,VWS V14.01,2013-03-06 01:47:00,
2013-03-05 19:52:00,44.2,14.0,25.66,NE,45,3.8,3.8,29,0.00,,---,0.00,VWS V14.01,2013-03-06 01:52:00,
2013-03-05 19:57:00,44.6,14.3,25.69,ENE,68,4.7,5.8,29,0.00,,---,0.00,VWS V14.01,2013-03-06 01:57:00,
2013-03-05 20:02:00,44.8,14.5,25.69,ENE,68,4.3,4.3,29,0.00,,---,0.00,VWS V14.01,2013-03-06 02:02:00,
2013-03-05 20:07:00,44.6,14.3,25.69,NE,45,3.6,3.6,29,0.00,,---,0.00,VWS V14.01,2013-03-06 02:07:00,
2013-03-05 20:12:00,44.2,14.0,25.66,ENE,68,3.4,3.4,29,0.00,,---,0.00,VWS V14.01,2013-03-06 02:12:00,
2013-03-05 20:17:00,43.9,13.7,25.66,ENE,68,3.4,3.6,29,0.00,,---,0.00,VWS V14.01,2013-03-06 02:17:00,
2013-03-05 20:22:00,43.9,13.7,25.66,ENE,68,4.0,4.0,29,0.00,,---,0.00,VWS V14.01,2013-03-06 02:22:00,
2013-03-05 20:27:00,43.5,13.4,25.66,NE,45,3.1,3.8,29,0.00,,---,0.00,VWS V14.01,2013-03-06 02:27:00,
2013-03-05 20:32:00,43.3,14.0,25.66,NE,45,3.6,4.0,30,0.00,,---,0.00,VWS V14.01,2013-03-06 02:32:00,
2013-03-05 20:37:00,43.0,12.9,25.66,ENE,68,2.2,2.5,29,0.00,,---,0.00,VWS V14.01,2013-03-06 02:37:00,
2013-03-05 20:42:00,42.8,13.5,25.66,East,90,2.9,2.9,30,0.00,,---,0.00,VWS V14.01,2013-03-06 02:42:00,
2013-03-05 20:47:00,42.6,13.4,25.66,SSE,158,1.6,2.5,30,0.00,,---,0.00,VWS V14.01,2013-03-06 02:47:00,
2013-03-05 20:52:00,42.3,13.1,25.66,SE,135,2.5,2.5,30,0.00,,---,0.00,VWS V14.01,2013-03-06 02:52:00,
2013-03-05 20:57:00,42.3,13.1,25.66,SSE,158,1.6,3.1,30,0.00,,---,0.00,VWS V14.01,2013-03-06 02:57:00,
2013-03-05 21:02:00,42.4,14.0,25.66,SSE,158,3.4,3.4,31,0.00,,---,0.00,VWS V14.01,2013-03-06 03:02:00,
2013-03-05 21:07:00,42.8,13.5,25.66,SSW,202,2.2,2.2,30,0.00,,---,0.00,VWS V14.01,2013-03-06 03:07:00,
2013-03-05 21:12:00,41.7,13.3,25.66,South,180,2.7,2.7,31,0.00,,---,0.00,VWS V14.01,2013-03-06 03:12:00,
2013-03-05 21:17:00,41.5,13.2,25.66,South,180,2.5,2.5,31,0.00,,---,0.00,VWS V14.01,2013-03-06 03:17:00,
2013-03-05 21:22:00,41.4,13.0,25.66,SSE,158,3.1,3.1,31,0.00,,---,0.00,VWS V14.01,2013-03-06 03:22:00,
2013-03-05 21:27:00,40.3,12.8,25.66,South,180,4.7,4.7,32,0.00,,---,0.00,VWS V14.01,2013-03-06 03:27:00,
2013-03-05 21:32:00,39.7,12.3,25.66,SSW,202,2.5,2.7,32,0.00,,---,0.00,VWS V14.01,2013-03-06 03:32:00,
2013-03-05 21:37:00,39.6,12.9,25.66,South,180,3.4,3.6,33,0.00,,---,0.00,VWS V14.01,2013-03-06 03:37:00,
2013-03-05 21:42:00,39.6,12.9,25.66,SSW,202,2.7,2.7,33,0.00,,---,0.00,VWS V14.01,2013-03-06 03:42:00,
2013-03-05 21:47:00,40.1,14.0,25.66,South,180,2.5,2.5,34,0.00,,---,0.00,VWS V14.01,2013-03-06 03:47:00,
2013-03-05 21:52:00,40.5,14.3,25.66,South,180,3.6,4.0,34,0.00,,---,0.00,VWS V14.01,2013-03-06 03:52:00,
2013-03-05 21:57:00,39.9,13.8,25.66,South,180,2.5,2.5,34,0.00,,---,0.00,VWS V14.01,2013-03-06 03:57:00,
2013-03-05 22:02:00,39.2,13.2,25.66,SSW,202,2.5,2.5,34,0.00,,---,0.00,VWS V14.01,2013-03-06 04:02:00,
2013-03-05 22:07:00,39.6,14.2,25.66,SSW,202,2.0,2.0,35,0.00,,---,0.00,VWS V14.01,2013-03-06 04:07:00,
2013-03-05 22:12:00,39.6,14.2,25.66,South,180,2.0,2.2,35,0.00,,---,0.00,VWS V14.01,2013-03-06 04:12:00,
2013-03-05 22:17:00,39.4,14.0,25.66,South,180,1.1,2.2,35,0.00,,---,0.00,VWS V14.01,2013-03-06 04:17:00,
2013-03-05 22:22:00,39.7,14.3,25.66,SSW,202,1.6,2.0,35,0.00,,---,0.00,VWS V14.01,2013-03-06 04:22:00,
2013-03-05 22:27:00,39.6,14.2,25.66,SSW,202,1.1,2.2,35,0.00,,---,0.00,VWS V14.01,2013-03-06 04:27:00,
2013-03-05 22:32:00,39.7,14.3,25.66,SSW,202,1.1,1.1,35,0.00,,---,0.00,VWS V14.01,2013-03-06 04:32:00,
2013-03-05 22:37:00,39.4,14.0,25.66,SW,225,2.0,2.2,35,0.00,,---,0.00,VWS V14.01,2013-03-06 04:37:00,
2013-03-05 22:42:00,39.2,13.2,25.66,SW,225,0.0,0.0,34,0.00,,---,0.00,VWS V14.01,2013-03-06 04:42:00,
2013-03-05 22:47:00,39.0,13.0,25.66,SW,225,0.0,0.9,34,0.00,,---,0.00,VWS V14.01,2013-03-06 04:47:00,
2013-03-05 22:52:00,38.8,13.5,25.66,SE,135,2.5,2.5,35,0.00,,---,0.00,VWS V14.01,2013-03-06 04:52:00,
2013-03-05 22:57:00,39.6,14.2,25.66,South,180,3.1,3.1,35,0.00,,---,0.00,VWS V14.01,2013-03-06 04:57:00,
2013-03-05 23:00:00,39.7,14.3,25.66,SSE,158,4.0,4.0,35,0.00,,---,0.00,VWS V14.01,2013-03-06 05:00:00,
2013-03-05 23:05:00,40.3,14.2,25.66,South,180,3.6,3.8,34,0.00,,---,0.00,VWS V14.01,2013-03-06 05:05:00,
2013-03-05 23:10:00,39.6,13.5,25.66,South,180,2.7,2.7,34,0.00,,---,0.00,VWS V14.01,2013-03-06 05:10:00,
2013-03-05 23:15:00,39.7,13.7,25.63,SSE,158,4.0,5.4,34,0.00,,---,0.00,VWS V14.01,2013-03-06 05:15:00,
2013-03-05 23:20:00,39.7,13.7,25.63,SSE,158,4.0,4.0,34,0.00,,---,0.00,VWS V14.01,2013-03-06 05:20:00,
2013-03-05 23:25:00,39.7,13.7,25.63,SSE,158,5.6,5.6,34,0.00,,---,0.00,VWS V14.01,2013-03-06 05:25:00,
2013-03-05 23:30:00,39.9,13.2,25.66,South,180,4.9,4.9,33,0.00,,---,0.00,VWS V14.01,2013-03-06 05:30:00,
2013-03-05 23:35:00,40.3,13.5,25.66,SSE,158,5.6,6.3,33,0.00,,---,0.00,VWS V14.01,2013-03-06 05:35:00,
2013-03-05 23:40:00,40.5,13.6,25.66,SSE,158,6.5,6.5,33,0.00,,---,0.00,VWS V14.01,2013-03-06 05:40:00,
2013-03-05 23:45:00,41.0,14.1,25.63,SSE,158,4.9,6.0,33,0.00,,---,0.00,VWS V14.01,2013-03-06 05:45:00,
2013-03-05 23:50:00,41.0,13.4,25.63,South,180,4.9,4.9,32,0.00,,---,0.00,VWS V14.01,2013-03-06 05:50:00,
2013-03-05 23:55:00,40.6,13.8,25.63,South,180,2.9,2.9,33,0.00,,---,0.00,VWS V14.01,2013-03-06 05:55:00,